Time;durP1;ratioP1;P1;durP2;ratioP2;P2;SDS_P1;SDS_P2;PMS_P1;PMS_P2;Temp;Humidity;BMP_temperature;BMP_pressure;BME280_temperature;BME280_humidity;BME280_pressure;Samples;Min_cycle;Max_cycle;Signal;HPM_P1;HPM_P2
2022/04/20 00:01:05;;;;;;;5.55;3.30;;;9.20;77.70;;;;;;5012279;28;20038;-72
2022/04/20 00:03:31;;;;;;;6.25;3.90;;;9.10;78.30;;;;;;5012730;28;20450;-71
2022/04/20 00:05:57;;;;;;;4.95;3.30;;;9.00;78.70;;;;;;5013828;28;20068;-71
2022/04/20 00:08:23;;;;;;;5.53;4.07;;;9.00;79.20;;;;;;5012754;28;20121;-72
2022/04/20 00:10:48;;;;;;;8.55;3.97;;;9.00;80.00;;;;;;5012157;28;20038;-72
2022/04/20 00:13:14;;;;;;;7.68;3.53;;;9.00;80.10;;;;;;5013433;28;20112;-71
2022/04/20 00:15:40;;;;;;;5.95;3.35;;;9.00;79.90;;;;;;5013753;28;20042;-72
2022/04/20 00:18:06;;;;;;;4.95;3.63;;;8.90;80.40;;;;;;5013664;28;20053;-74
2022/04/20 00:20:31;;;;;;;7.25;3.85;;;9.00;80.50;;;;;;5012155;28;20514;-74
2022/04/20 00:22:57;;;;;;;6.28;3.30;;;9.00;80.20;;;;;;5012433;28;20046;-72
2022/04/20 00:25:22;;;;;;;6.45;3.33;;;9.00;80.10;;;;;;5013374;28;20044;-72
2022/04/20 00:27:48;;;;;;;8.02;4.15;;;8.90;80.40;;;;;;5013316;28;20037;-71
2022/04/20 00:30:14;;;;;;;6.50;3.75;;;8.90;80.90;;;;;;5011689;28;20037;-72
2022/04/20 00:32:40;;;;;;;5.88;3.22;;;8.90;80.90;;;;;;5013440;28;20073;-72
2022/04/20 00:35:12;;;;;;;7.50;3.30;;;8.80;81.20;;;;;;5012947;28;20487;-72
2022/04/20 00:37:40;;;;;;;5.90;3.50;;;8.80;81.40;;;;;;5011983;28;20088;-72
2022/04/20 00:40:07;;;;;;;7.07;3.58;;;8.80;82.00;;;;;;5011603;28;20439;-72
2022/04/20 00:42:32;;;;;;;8.77;4.30;;;8.80;82.30;;;;;;4995575;28;20037;-72
2022/04/20 00:44:59;;;;;;;5.57;3.95;;;8.80;83.20;;;;;;5013128;28;20045;-72
2022/04/20 00:47:25;;;;;;;7.55;3.28;;;8.80;83.60;;;;;;5013151;28;20108;-71
2022/04/20 00:49:51;;;;;;;6.47;3.15;;;8.80;83.30;;;;;;5011667;28;20080;-72
2022/04/20 00:52:17;;;;;;;5.82;3.60;;;8.70;84.30;;;;;;5012706;28;20542;-71
2022/04/20 00:54:43;;;;;;;6.20;3.30;;;8.70;84.10;;;;;;5012707;28;20030;-71
2022/04/20 00:57:09;;;;;;;5.57;3.92;;;8.70;84.90;;;;;;5013075;28;20061;-72
2022/04/20 00:59:36;;;;;;;11.32;4.18;;;8.70;85.20;;;;;;5012494;28;20411;-72
2022/04/20 01:02:02;;;;;;;5.65;4.38;;;8.70;85.50;;;;;;5012699;28;20042;-71
2022/04/20 01:04:29;;;;;;;7.53;3.55;;;8.60;85.70;;;;;;5012892;28;20037;-71
2022/04/20 01:06:59;;;;;;;5.30;3.45;;;8.60;86.60;;;;;;5012713;28;20577;-72
2022/04/20 01:09:24;;;;;;;4.40;3.75;;;8.60;87.00;;;;;;5012712;28;20048;-71
2022/04/20 01:11:51;;;;;;;5.05;3.90;;;8.60;87.10;;;;;;5011467;28;20045;-72
2022/04/20 01:14:17;;;;;;;5.15;3.70;;;8.60;87.70;;;;;;5012538;28;20053;-72
2022/04/20 01:16:43;;;;;;;6.20;4.18;;;8.60;87.60;;;;;;5012673;28;20042;-72
2022/04/20 01:19:08;;;;;;;7.85;4.00;;;8.60;88.20;;;;;;5012578;28;20443;-71
2022/04/20 01:21:34;;;;;;;5.93;3.88;;;8.50;88.40;;;;;;5012568;28;20176;-72
2022/04/20 01:23:59;;;;;;;7.43;3.97;;;8.50;89.10;;;;;;5011269;28;20042;-72
2022/04/20 01:26:27;;;;;;;7.38;4.32;;;8.50;89.20;;;;;;5012387;28;20599;-72
2022/04/20 01:28:53;;;;;;;7.90;4.00;;;8.50;90.00;;;;;;5012319;28;20045;-72
2022/04/20 01:31:19;;;;;;;4.85;3.63;;;8.40;90.50;;;;;;4994658;28;20080;-72
2022/04/20 01:33:45;;;;;;;7.55;3.95;;;8.40;90.80;;;;;;5012107;28;20511;-72
2022/04/20 01:36:11;;;;;;;9.30;4.07;;;8.40;91.30;;;;;;5012229;28;20096;-72
2022/04/20 01:38:38;;;;;;;7.60;4.18;;;8.40;91.50;;;;;;5012146;28;20038;-72
2022/04/20 01:41:04;;;;;;;7.63;4.40;;;8.30;92.10;;;;;;5012077;28;20068;-72
2022/04/20 01:43:30;;;;;;;7.63;3.47;;;8.30;92.50;;;;;;5011998;28;20423;-72
2022/04/20 01:45:56;;;;;;;7.35;3.45;;;8.30;93.90;;;;;;5012207;28;20045;-72
2022/04/20 01:48:21;;;;;;;6.32;3.90;;;8.30;93.20;;;;;;5012217;28;20049;-72
2022/04/20 01:53:31;;;;;;;6.70;4.25;;;8.20;93.90;;;;;;5012217;28;20100;-72
2022/04/20 01:55:59;;;;;;;4.97;3.58;;;8.20;94.00;;;;;;5012161;28;20038;-72
2022/04/20 01:58:24;;;;;;;4.85;3.85;;;8.20;94.20;;;;;;5012049;28;20046;-72
2022/04/20 02:00:50;;;;;;;6.40;3.63;;;8.20;94.30;;;;;;5011806;28;20476;-72
2022/04/20 02:03:15;;;;;;;6.65;3.95;;;8.10;94.80;;;;;;5010667;28;20092;-72
2022/04/20 02:05:41;;;;;;;8.30;4.07;;;8.10;95.10;;;;;;5010635;28;20046;-72
2022/04/20 02:08:07;;;;;;;5.28;3.70;;;8.10;95.30;;;;;;5012102;28;20451;-72
2022/04/20 02:10:32;;;;;;;7.43;4.30;;;8.00;95.80;;;;;;5010558;28;20100;-71
2022/04/20 02:12:58;;;;;;;5.60;3.85;;;8.00;96.10;;;;;;5015211;28;20041;-72
2022/04/20 02:15:23;;;;;;;6.95;4.25;;;8.00;96.30;;;;;;5015806;28;20042;-72
2022/04/20 02:17:49;;;;;;;7.03;4.15;;;7.90;96.60;;;;;;5014626;28;20116;-72
2022/04/20 02:20:15;;;;;;;6.53;3.92;;;7.90;96.80;;;;;;5015425;28;20086;-72
2022/04/20 02:22:40;;;;;;;8.02;5.18;;;7.90;97.00;;;;;;5015976;28;20076;-72
2022/04/20 02:25:07;;;;;;;7.38;4.32;;;7.90;97.20;;;;;;5014581;28;20561;-72
2022/04/20 02:27:32;;;;;;;5.57;4.25;;;7.90;97.30;;;;;;5014533;28;20048;-72
2022/04/20 02:29:58;;;;;;;6.40;4.10;;;7.90;97.80;;;;;;5014051;28;20050;-72
2022/04/20 02:32:24;;;;;;;7.65;4.97;;;7.80;98.10;;;;;;5015558;28;20042;-71
2022/04/20 02:34:49;;;;;;;5.43;3.85;;;7.80;98.50;;;;;;5015171;28;20515;-71
2022/04/20 02:37:15;;;;;;;7.65;4.88;;;7.70;98.80;;;;;;5015449;28;20049;-74
2022/04/20 02:39:42;;;;;;;9.48;4.90;;;7.80;98.70;;;;;;5014125;28;20125;-74
2022/04/20 02:42:08;;;;;;;6.82;4.32;;;7.70;98.90;;;;;;5014027;28;20038;-72
2022/04/20 02:44:34;;;;;;;5.60;4.25;;;7.70;99.10;;;;;;5014285;28;20069;-71
2022/04/20 02:47:01;;;;;;;7.15;4.53;;;7.70;99.20;;;;;;5014273;28;20598;-72
2022/04/20 02:49:26;;;;;;;6.55;4.32;;;7.70;99.30;;;;;;5015201;28;20038;-72
2022/04/20 02:51:52;;;;;;;8.15;4.43;;;7.70;99.20;;;;;;5013647;28;20053;-72
2022/04/20 02:54:17;;;;;;;6.22;4.28;;;7.60;99.70;;;;;;5015098;28;20096;-71
2022/04/20 02:56:43;;;;;;;6.28;4.00;;;7.60;99.80;;;;;;5013999;28;20518;-71
2022/04/20 02:59:09;;;;;;;8.13;4.97;;;7.60;99.90;;;;;;5013758;28;20045;-71
2022/04/20 03:01:34;;;;;;;6.25;4.60;;;7.50;99.90;;;;;;4997085;28;20478;-72
2022/04/20 03:04:00;;;;;;;6.80;4.30;;;7.50;99.90;;;;;;5014782;28;20046;-71
2022/04/20 03:06:27;;;;;;;8.43;4.22;;;7.50;99.90;;;;;;5013681;28;20045;-72
2022/04/20 03:08:53;;;;;;;6.93;4.70;;;7.50;99.90;;;;;;5014984;28;20053;-72
2022/04/20 03:11:19;;;;;;;6.32;4.28;;;7.50;99.90;;;;;;5014628;28;20041;-72
2022/04/20 03:13:45;;;;;;;6.15;4.68;;;7.50;99.90;;;;;;5014641;28;20403;-72
2022/04/20 03:16:11;;;;;;;5.60;3.95;;;7.50;99.90;;;;;;5014805;28;20038;-72
2022/04/20 03:18:36;;;;;;;10.30;4.97;;;7.40;99.90;;;;;;5014587;28;20041;-72
2022/04/20 03:21:02;;;;;;;7.28;3.72;;;7.30;99.90;;;;;;5014549;28;20041;-72
2022/04/20 03:23:28;;;;;;;6.25;4.15;;;7.40;99.90;;;;;;5014308;28;20034;-71
2022/04/20 03:25:54;;;;;;;7.13;4.47;;;7.30;99.90;;;;;;5013541;28;20135;-72
2022/04/20 03:28:20;;;;;;;6.57;4.45;;;7.30;99.90;;;;;;5013276;28;20049;-72
2022/04/20 03:30:47;;;;;;;8.20;4.13;;;7.40;99.90;;;;;;5014199;28;20073;-72
2022/04/20 03:33:13;;;;;;;5.93;4.05;;;7.30;99.90;;;;;;5013897;28;20511;-72
2022/04/20 03:35:38;;;;;;;6.40;4.65;;;7.40;99.90;;;;;;5014533;28;20080;-72
2022/04/20 03:38:06;;;;;;;7.22;4.32;;;7.30;99.90;;;;;;5014503;28;20072;-74
2022/04/20 03:40:32;;;;;;;8.00;4.82;;;7.30;99.90;;;;;;5014049;28;20446;-74
2022/04/20 03:42:57;;;;;;;7.38;5.15;;;7.30;99.90;;;;;;5014395;28;20033;-72
2022/04/20 03:45:23;;;;;;;5.68;4.18;;;7.30;99.90;;;;;;5014215;28;20095;-71
2022/04/20 03:47:49;;;;;;;12.38;4.88;;;7.30;99.90;;;;;;5014151;28;20168;-72
2022/04/20 03:50:14;;;;;;;7.85;4.63;;;7.10;99.90;;;;;;5012523;28;20045;-72
2022/04/20 03:52:40;;;;;;;6.72;3.70;;;7.20;99.90;;;;;;5012793;28;20046;-72
2022/04/20 03:55:06;;;;;;;9.02;4.03;;;7.20;99.90;;;;;;5012566;28;20042;-74
2022/04/20 03:57:31;;;;;;;5.72;4.30;;;7.10;99.90;;;;;;5014075;28;20042;-74
2022/04/20 03:59:57;;;;;;;7.10;4.25;;;7.10;99.90;;;;;;5013710;28;20038;-72
2022/04/20 04:02:22;;;;;;;5.68;4.07;;;7.10;99.90;;;;;;5013791;28;20084;-72
2022/04/20 04:04:48;;;;;;;7.32;4.03;;;7.00;99.90;;;;;;5014022;28;20046;-72
2022/04/20 04:07:13;;;;;;;6.57;4.13;;;7.00;99.90;;;;;;5014011;28;20042;-72
2022/04/20 04:09:39;;;;;;;8.00;3.97;;;7.10;99.90;;;;;;5012372;28;20049;-72
2022/04/20 04:12:08;;;;;;;6.65;4.85;;;7.10;99.90;;;;;;5013502;28;20044;-72
2022/04/20 04:14:44;;;;;;;6.55;4.20;;;7.20;99.90;;;;;;5012190;28;20041;-72
2022/04/20 04:17:09;;;;;;;6.18;4.45;;;7.10;99.90;;;;;;5013554;28;20045;-74
2022/04/20 04:19:35;;;;;;;7.72;4.28;;;7.20;99.90;;;;;;5012456;28;20077;-73
2022/04/20 04:22:02;;;;;;;6.22;4.30;;;7.20;99.90;;;;;;5011872;28;20034;-74
2022/04/20 04:24:37;;;;;;;8.75;4.22;;;7.20;99.90;;;;;;5012243;28;20042;-74
2022/04/20 04:27:09;;;;;;;6.00;4.10;;;7.20;99.90;;;;;;5012104;28;20042;-73
2022/04/20 04:29:36;;;;;;;6.60;3.92;;;7.20;99.90;;;;;;4995808;28;20095;-74
2022/04/20 04:32:01;;;;;;;5.80;4.03;;;7.10;99.90;;;;;;5013166;28;20056;-74
2022/04/20 04:34:27;;;;;;;5.60;4.15;;;7.20;99.90;;;;;;5012200;28;20034;-74
2022/04/20 04:36:54;;;;;;;5.18;4.05;;;7.20;99.90;;;;;;5012123;28;20057;-74
2022/04/20 04:39:24;;;;;;;5.97;3.90;;;7.20;99.90;;;;;;5013186;28;20034;-74
2022/04/20 04:41:50;;;;;;;8.63;4.40;;;7.30;99.90;;;;;;5012777;28;20511;-74
2022/04/20 04:44:19;;;;;;;6.53;4.13;;;7.30;99.90;;;;;;5012926;28;20524;-74
2022/04/20 04:49:31;;;;;;;6.88;3.85;;;7.20;99.90;;;;;;5013165;28;20050;-74
2022/04/20 04:51:58;;;;;;;11.70;4.65;;;7.30;99.90;;;;;;5012706;28;20060;-73
2022/04/20 04:54:24;;;;;;;7.60;4.30;;;7.30;99.90;;;;;;5012643;28;20484;-74
2022/04/20 04:56:50;;;;;;;6.18;4.10;;;7.30;99.90;;;;;;5011626;28;20134;-74
2022/04/20 04:59:16;;;;;;;6.90;4.15;;;7.30;99.90;;;;;;5012948;28;20037;-74
2022/04/20 05:01:42;;;;;;;7.00;3.90;;;7.40;99.90;;;;;;5012605;28;20038;-73
2022/04/20 05:04:08;;;;;;;6.50;4.13;;;7.40;99.90;;;;;;5012847;28;20041;-73
2022/04/20 05:06:33;;;;;;;8.57;4.30;;;7.60;99.90;;;;;;5012831;28;20037;-74
2022/04/20 05:08:59;;;;;;;6.47;4.22;;;7.60;99.90;;;;;;5012627;28;20041;-73
2022/04/20 05:11:24;;;;;;;7.95;4.43;;;7.80;99.90;;;;;;5012848;28;20431;-73
2022/04/20 05:13:50;;;;;;;6.97;4.22;;;7.80;99.90;;;;;;5011330;28;20081;-73
2022/04/20 05:16:15;;;;;;;6.60;3.95;;;8.00;99.90;;;;;;5012698;28;20066;-74
2022/04/20 05:18:41;;;;;;;6.43;3.72;;;8.20;99.90;;;;;;5012407;28;20092;-74
2022/04/20 05:21:07;;;;;;;6.05;4.78;;;8.30;99.90;;;;;;5012272;28;20099;-74
2022/04/20 05:23:32;;;;;;;6.25;4.30;;;8.50;99.90;;;;;;5011292;28;20056;-72
2022/04/20 05:25:58;;;;;;;5.50;4.00;;;8.40;99.90;;;;;;5011014;28;20495;-74
2022/04/20 05:28:23;;;;;;;6.72;4.30;;;8.50;99.80;;;;;;5012505;28;20037;-74
2022/04/20 05:30:49;;;;;;;7.22;4.30;;;8.70;99.10;;;;;;5012119;28;20033;-74
2022/04/20 05:33:15;;;;;;;9.05;4.50;;;8.80;98.50;;;;;;5011968;28;20454;-74
2022/04/20 05:35:40;;;;;;;13.68;4.05;;;8.90;97.90;;;;;;5012320;28;20125;-74
2022/04/20 05:43:49;;;;;;;6.55;4.30;;;9.40;95.40;;;;;;5013515;28;20049;-73
2022/04/20 05:46:15;;;;;;;7.22;4.30;;;9.60;94.60;;;;;;5012830;28;20448;-74
2022/04/20 05:48:40;;;;;;;6.22;4.72;;;9.70;94.20;;;;;;5012049;28;20038;-74
2022/04/20 05:51:07;;;;;;;23.73;6.82;;;9.70;93.50;;;;;;5010811;28;20454;-74
2022/04/20 05:53:32;;;;;;;7.00;4.97;;;9.90;93.00;;;;;;5012122;28;20068;-74
2022/04/20 05:55:58;;;;;;;8.60;4.35;;;10.00;92.40;;;;;;5013063;28;20503;-74
2022/04/20 05:58:24;;;;;;;9.35;5.32;;;10.20;92.30;;;;;;5013918;28;20069;-74
2022/04/20 06:00:49;;;;;;;7.55;4.57;;;10.20;92.00;;;;;;5013980;28;20041;-74
2022/04/20 06:03:15;;;;;;;6.10;4.78;;;10.30;91.40;;;;;;5012666;28;20049;-74
2022/04/20 06:05:41;;;;;;;7.28;4.38;;;10.40;91.00;;;;;;5012186;28;20038;-74
2022/04/20 06:08:08;;;;;;;4.70;3.95;;;10.60;90.70;;;;;;5010861;28;20034;-74
2022/04/20 06:10:34;;;;;;;9.40;4.50;;;10.70;90.40;;;;;;5010597;28;20069;-74
2022/04/20 06:13:00;;;;;;;8.15;5.07;;;10.80;88.80;;;;;;5011852;28;20084;-74
2022/04/20 06:15:25;;;;;;;7.00;5.15;;;11.00;87.60;;;;;;5011892;28;20122;-74
2022/04/20 06:17:51;;;;;;;7.88;4.63;;;11.00;86.70;;;;;;5011631;28;20118;-74
2022/04/20 06:20:17;;;;;;;7.97;4.93;;;11.10;84.80;;;;;;5010242;28;20081;-74
2022/04/20 06:22:43;;;;;;;8.52;4.97;;;11.00;82.80;;;;;;5010717;28;20092;-75
2022/04/20 06:25:08;;;;;;;8.00;4.43;;;11.10;83.50;;;;;;5011806;28;20073;-74
2022/04/20 06:27:34;;;;;;;10.20;5.55;;;11.30;83.80;;;;;;5011798;28;20053;-74
2022/04/20 06:30:00;;;;;;;7.70;5.25;;;11.50;82.30;;;;;;5010149;28;20038;-72
2022/04/20 06:32:27;;;;;;;5.63;4.25;;;11.70;80.90;;;;;;5010304;28;20492;-72
2022/04/20 06:34:54;;;;;;;6.15;4.28;;;11.70;79.20;;;;;;5006751;28;20034;-72
2022/04/20 06:37:21;;;;;;;5.38;3.63;;;11.80;76.60;;;;;;5011816;28;20136;-72
2022/04/20 06:39:46;;;;;;;5.60;4.45;;;11.80;73.10;;;;;;5011743;28;20038;-72
2022/04/20 06:42:12;;;;;;;8.35;4.47;;;11.70;74.50;;;;;;5010345;28;20492;-72
2022/04/20 06:44:38;;;;;;;5.88;4.20;;;12.00;73.90;;;;;;5011539;28;20121;-72
2022/04/20 06:47:04;;;;;;;5.72;3.75;;;12.00;72.30;;;;;;5010251;28;20077;-72
2022/04/20 06:49:30;;;;;;;7.95;4.18;;;12.00;73.40;;;;;;5011790;28;20112;-73
2022/04/20 07:00:09;;;;;;;6.25;4.05;;;12.50;68.50;;;;;;5015038;28;20092;-73
2022/04/20 07:02:34;;;;;;;9.00;4.00;;;12.60;67.70;;;;;;5015071;28;20073;-73
2022/04/20 07:05:00;;;;;;;7.90;4.13;;;12.80;66.70;;;;;;5014786;28;20125;-73
2022/04/20 07:07:26;;;;;;;9.43;4.68;;;13.00;65.80;;;;;;5014879;28;20046;-73
2022/04/20 07:09:51;;;;;;;6.05;4.07;;;13.20;64.90;;;;;;5014819;28;20044;-73
2022/04/20 07:12:17;;;;;;;5.95;3.70;;;13.10;64.00;;;;;;5013493;28;20087;-72
2022/04/20 07:14:42;;;;;;;6.47;3.95;;;13.30;63.60;;;;;;5014826;28;20034;-72
2022/04/20 07:17:08;;;;;;;8.07;4.20;;;13.30;62.50;;;;;;5005846;28;20034;-72
2022/04/20 07:19:34;;;;;;;7.68;3.72;;;13.50;62.30;;;;;;4977644;28;20042;-72
2022/04/20 07:22:00;;;;;;;7.35;4.00;;;13.50;61.60;;;;;;4993635;28;20543;-72
2022/04/20 07:24:26;;;;;;;13.30;4.90;;;13.70;61.40;;;;;;4995064;28;20042;-73
2022/04/20 07:26:51;;;;;;;7.13;4.07;;;13.50;60.70;;;;;;4995306;28;20115;-73
2022/04/20 07:29:17;;;;;;;5.40;3.72;;;13.60;59.10;;;;;;4994990;28;20038;-71
2022/04/20 07:31:43;;;;;;;9.80;4.60;;;13.80;58.70;;;;;;4994744;28;20038;-73
2022/04/20 07:34:08;;;;;;;5.10;3.90;;;13.80;58.40;;;;;;5002637;28;20046;-72
2022/04/20 07:36:34;;;;;;;5.75;3.70;;;14.00;57.90;;;;;;4994662;28;20049;-73
2022/04/20 07:38:59;;;;;;;7.00;4.20;;;14.10;57.10;;;;;;5009816;28;20046;-74
2022/04/20 07:41:25;;;;;;;6.72;3.72;;;14.00;56.00;;;;;;4994386;28;20035;-73
2022/04/20 07:43:51;;;;;;;7.70;3.53;;;14.10;56.50;;;;;;4993386;28;20500;-73
2022/04/20 07:46:18;;;;;;;5.10;3.83;;;14.20;55.00;;;;;;5009730;28;20104;-73
2022/04/20 07:48:44;;;;;;;6.85;4.05;;;14.10;54.40;;;;;;4994619;28;20085;-73
2022/04/20 07:51:09;;;;;;;6.40;4.20;;;14.10;54.30;;;;;;4993008;28;20073;-73
2022/04/20 07:53:35;;;;;;;9.00;4.03;;;14.10;54.10;;;;;;4993396;28;20116;-73
2022/04/20 07:56:00;;;;;;;5.80;4.05;;;14.60;53.50;;;;;;4993358;28;20065;-73
2022/04/20 07:58:26;;;;;;;6.18;3.55;;;14.50;52.50;;;;;;4995611;28;20031;-74
2022/04/20 08:00:53;;;;;;;5.10;3.03;;;14.30;51.80;;;;;;4992695;28;20529;-73
2022/04/20 08:03:19;;;;;;;4.15;2.83;;;14.50;51.30;;;;;;4993632;28;20054;-73
2022/04/20 08:05:52;;;;;;;7.22;3.33;;;14.60;50.80;;;;;;5009370;28;20042;-74
2022/04/20 08:08:19;;;;;;;4.95;2.70;;;14.80;50.40;;;;;;4976476;28;20042;-73
2022/04/20 08:10:45;;;;;;;5.88;2.85;;;14.90;49.30;;;;;;4995432;28;20504;-74
2022/04/20 08:15:56;;;;;;;5.00;2.65;;;14.80;48.90;;;;;;5023928;28;20088;-74
2022/04/20 08:18:22;;;;;;;3.92;2.30;;;14.80;46.90;;;;;;5011351;28;20069;-73
2022/04/20 08:20:48;;;;;;;4.07;2.25;;;14.90;46.20;;;;;;5004330;28;20607;-74
2022/04/20 08:23:14;;;;;;;4.68;2.35;;;14.80;45.00;;;;;;5013576;28;20129;-74
2022/04/20 08:25:40;;;;;;;3.10;2.17;;;14.90;43.90;;;;;;5013628;28;20044;-73
2022/04/20 08:28:15;;;;;;;3.45;2.30;;;14.90;44.20;;;;;;5012447;28;20041;-73
2022/04/20 08:30:40;;;;;;;4.38;2.50;;;15.00;43.70;;;;;;4995509;28;20044;-74
2022/04/20 08:33:08;;;;;;;3.80;2.33;;;15.10;43.70;;;;;;5013110;28;20045;-73
2022/04/20 08:35:37;;;;;;;5.25;2.30;;;15.20;43.50;;;;;;5011817;28;20383;-73
2022/04/20 08:38:06;;;;;;;7.55;2.45;;;15.00;42.40;;;;;;5010727;28;20466;-73
2022/04/20 08:40:33;;;;;;;2.97;2.22;;;15.00;42.00;;;;;;5011607;28;20048;-73
2022/04/20 08:43:02;;;;;;;4.55;2.75;;;15.10;42.30;;;;;;4995481;28;20038;-74
2022/04/20 08:45:28;;;;;;;3.42;1.98;;;15.20;41.90;;;;;;4995734;28;20076;-73
2022/04/20 08:47:56;;;;;;;5.03;2.30;;;15.40;41.80;;;;;;5011921;28;20041;-73
2022/04/20 08:50:23;;;;;;;4.65;2.35;;;15.30;40.30;;;;;;5012859;28;20053;-73
2022/04/20 08:52:50;;;;;;;5.65;2.33;;;15.20;39.90;;;;;;5011534;28;20053;-73
2022/04/20 08:55:18;;;;;;;3.45;2.10;;;15.30;41.20;;;;;;5012845;28;20034;-74
2022/04/20 08:57:48;;;;;;;4.32;2.15;;;15.30;40.60;;;;;;5011608;28;20038;-73
2022/04/20 09:00:21;;;;;;;2.83;1.85;;;15.60;41.00;;;;;;5012532;28;20522;-73
2022/04/20 09:02:55;;;;;;;;;;;15.40;38.10;;;;;;5012281;28;20069;-73
2022/04/20 09:05:22;;;;;;;3.55;1.10;;;15.50;37.40;;;;;;5011810;28;20282;-74
2022/04/20 09:07:48;;;;;;;2.28;1.23;;;15.50;36.40;;;;;;5012819;28;20034;-74
2022/04/20 09:10:13;;;;;;;3.70;1.27;;;15.40;35.70;;;;;;5011375;28;20565;-74
2022/04/20 09:12:44;;;;;;;1.90;1.10;;;15.40;36.00;;;;;;5011304;28;20073;-73
2022/04/20 09:15:14;;;;;;;3.55;1.70;;;15.60;36.00;;;;;;5011148;28;20037;-73
2022/04/20 09:17:42;;;;;;;4.82;1.95;;;15.80;35.80;;;;;;5011536;28;20046;-72
2022/04/20 09:20:09;;;;;;;4.50;1.88;;;15.80;38.30;;;;;;5011841;28;20041;-73
2022/04/20 09:22:35;;;;;;;2.40;1.63;;;15.90;39.30;;;;;;5011518;28;20053;-73
2022/04/20 09:25:07;;;;;;;3.63;1.98;;;15.80;38.30;;;;;;5012463;28;20446;-73
2022/04/20 09:27:39;;;;;;;3.20;1.98;;;15.70;38.70;;;;;;5012327;28;20065;-73
2022/04/20 09:30:09;;;;;;;5.20;1.83;;;15.70;39.30;;;;;;5011059;28;20052;-73
2022/04/20 09:32:42;;;;;;;4.03;1.80;;;15.70;39.50;;;;;;5011249;28;20038;-73
2022/04/20 09:35:19;;;;;;;4.93;1.83;;;15.60;38.90;;;;;;5010813;28;20062;-74
2022/04/20 09:37:45;;;;;;;3.38;1.80;;;15.60;38.30;;;;;;5011005;28;20068;-73
2022/04/20 09:40:13;;;;;;;4.32;1.85;;;15.60;38.70;;;;;;5010672;28;20522;-73
2022/04/20 09:42:58;;;;;;;4.35;1.92;;;15.50;38.80;;;;;;5010922;28;20049;-73
2022/04/20 09:45:23;;;;;;;2.70;1.90;;;15.50;38.40;;;;;;5011996;28;20586;-73
2022/04/20 09:50:33;;;;;;;4.53;1.73;;;15.20;38.10;;;;;;5010599;28;20545;-72
2022/04/20 09:53:00;;;;;;;3.75;1.67;;;15.10;38.90;;;;;;5011044;28;20049;-73
2022/04/20 09:55:34;;;;;;;3.35;1.50;;;15.20;39.10;;;;;;5012101;28;20049;-73
2022/04/20 09:58:12;;;;;;;4.43;1.77;;;15.20;38.10;;;;;;5010800;28;20042;-72
2022/04/20 10:00:44;;;;;;;2.65;1.63;;;15.30;38.00;;;;;;5010445;28;20045;-72
2022/04/20 10:03:09;;;;;;;3.75;1.98;;;15.20;38.00;;;;;;5010767;28;20038;-72
2022/04/20 10:05:37;;;;;;;2.80;1.75;;;15.20;38.90;;;;;;5012093;28;20041;-72
2022/04/20 10:08:03;;;;;;;3.97;2.35;;;15.10;38.60;;;;;;5010944;28;20411;-72
2022/04/20 10:10:33;;;;;;;4.28;1.80;;;15.20;38.00;;;;;;5010455;28;20037;-73
2022/04/20 10:13:02;;;;;;;2.08;1.40;;;15.20;38.50;;;;;;5010400;28;20053;-70
2022/04/20 10:18:24;;;;;;;3.70;1.58;;;15.20;38.10;;;;;;5010602;28;20058;-73
2022/04/20 10:20:54;;;;;;;2.80;1.60;;;15.00;37.50;;;;;;5010626;28;20557;-72
2022/04/20 10:23:22;;;;;;;4.20;1.90;;;15.00;38.20;;;;;;5010482;28;20403;-72
2022/04/20 10:25:52;;;;;;;2.60;1.83;;;15.00;38.80;;;;;;5010729;28;20048;-72
2022/04/20 10:28:24;;;;;;;2.97;2.28;;;15.10;39.50;;;;;;5010549;28;20557;-72
2022/04/20 10:31:08;;;;;;;2.85;1.70;;;15.10;39.00;;;;;;5010441;28;20121;-72
2022/04/20 10:33:34;;;;;;;3.90;2.00;;;15.10;39.40;;;;;;5014014;28;20042;-72
2022/04/20 10:36:09;;;;;;;2.90;1.88;;;15.20;40.30;;;;;;4997428;28;20092;-72
2022/04/20 10:38:35;;;;;;;6.00;1.88;;;15.20;39.40;;;;;;5002811;28;20105;-71
2022/04/20 10:41:11;;;;;;;2.50;1.77;;;15.20;39.30;;;;;;4996313;28;20073;-72
2022/04/20 10:43:39;;;;;;;2.63;1.58;;;15.30;39.30;;;;;;4986680;28;20054;-73
2022/04/20 10:46:16;;;;;;;4.43;1.70;;;15.30;40.00;;;;;;5008667;28;20138;-72
2022/04/20 10:49:15;;;;;;;3.42;1.92;;;15.40;40.00;;;;;;5005739;28;20038;-72
2022/04/20 10:51:46;;;;;;;2.70;1.88;;;15.30;40.50;;;;;;4977811;28;20083;-73
2022/04/20 10:54:17;;;;;;;8.65;1.92;;;15.40;40.30;;;;;;5004855;28;20081;-73
2022/04/20 10:57:09;;;;;;;2.63;1.77;;;15.40;39.00;;;;;;5004764;28;20042;-74
2022/04/20 10:59:35;;;;;;;2.20;1.60;;;15.40;38.50;;;;;;5010842;28;20038;-71
2022/04/20 11:02:03;;;;;;;2.28;1.52;;;15.30;39.20;;;;;;5015018;28;20506;-71
2022/04/20 11:04:40;;;;;;;2.80;1.85;;;15.40;40.20;;;;;;5015016;28;20120;-71
2022/04/20 11:07:09;;;;;;;3.50;1.45;;;15.60;40.00;;;;;;5013723;28;20049;-71
2022/04/20 11:09:48;;;;;;;1.98;1.42;;;15.60;38.80;;;;;;5014885;28;20553;-71
2022/04/20 11:21:07;;;;;;;1.17;0.98;;;15.60;35.80;;;;;;5014420;28;20046;-74
2022/04/20 11:23:53;;;;;;;1.85;1.23;;;15.60;36.70;;;;;;5014692;28;20519;-72
2022/04/20 11:26:29;;;;;;;3.78;1.30;;;15.70;36.80;;;;;;5013402;28;20570;-71
2022/04/20 11:28:57;;;;;;;2.63;1.15;;;15.80;37.20;;;;;;5014578;28;20519;-73
2022/04/20 11:31:23;;;;;;;2.55;1.42;;;15.80;36.30;;;;;;5013088;28;20084;-72
2022/04/20 11:33:51;;;;;;;2.28;1.20;;;15.80;36.30;;;;;;4996957;28;20034;-72
2022/04/20 11:36:17;;;;;;;3.15;1.30;;;15.80;36.80;;;;;;5013223;28;20074;-72
2022/04/20 11:38:44;;;;;;;3.83;1.73;;;15.60;36.70;;;;;;5014332;28;20084;-72
2022/04/20 11:41:11;;;;;;;2.08;1.40;;;15.70;37.30;;;;;;5013122;28;20093;-72
2022/04/20 11:43:40;;;;;;;3.67;1.60;;;15.70;38.00;;;;;;5012761;28;20506;-71
2022/04/20 11:46:07;;;;;;;1.23;1.10;;;16.00;38.70;;;;;;5014347;28;20099;-72
2022/04/20 11:48:48;;;;;;;1.83;1.20;;;16.00;36.50;;;;;;5012978;28;20045;-72
2022/04/20 11:51:13;;;;;;;1.73;1.15;;;15.90;36.50;;;;;;5012835;28;20042;-72
2022/04/20 11:53:42;;;;;;;4.10;1.00;;;15.90;37.10;;;;;;5003537;28;20606;-71
2022/04/20 11:56:11;;;;;;;1.55;1.05;;;15.90;37.20;;;;;;4995697;28;20050;-72
2022/04/20 11:58:37;;;;;;;2.97;1.05;;;15.90;36.90;;;;;;5007032;28;20484;-72
2022/04/20 12:01:04;;;;;;;1.70;1.08;;;15.70;37.20;;;;;;5009263;28;20133;-70
2022/04/20 12:03:31;;;;;;;2.42;1.40;;;15.90;38.10;;;;;;5012448;28;20046;-71
2022/04/20 12:06:08;;;;;;;2.42;1.33;;;15.90;39.40;;;;;;5014106;28;20065;-71
2022/04/20 12:08:36;;;;;;;2.38;1.33;;;16.00;39.30;;;;;;5012611;28;20045;-70
2022/04/20 12:11:10;;;;;;;2.97;1.33;;;16.00;38.70;;;;;;5013716;28;20038;-70
2022/04/20 12:13:37;;;;;;;1.75;0.77;;;16.00;38.90;;;;;;5012489;28;20120;-71
2022/04/20 12:16:05;;;;;;;3.08;1.50;;;16.00;38.80;;;;;;5012369;28;20071;-70
2022/04/20 12:18:37;;;;;;;3.60;1.67;;;16.00;38.70;;;;;;5012323;28;20041;-70
2022/04/20 12:21:26;;;;;;;2.05;1.10;;;16.00;39.50;;;;;;5013437;28;20124;-70
2022/04/20 12:23:52;;;;;;;3.33;1.45;;;16.10;39.10;;;;;;5013340;28;20046;-70
2022/04/20 12:26:28;;;;;;;2.70;1.20;;;16.30;39.60;;;;;;5013650;28;20109;-70
2022/04/20 12:29:05;;;;;;;2.75;1.17;;;16.30;39.90;;;;;;5014956;28;20088;-71
2022/04/20 12:31:31;;;;;;;3.08;1.00;;;16.40;38.80;;;;;;5012039;28;20077;-71
2022/04/20 12:34:04;;;;;;;1.60;1.15;;;16.30;38.20;;;;;;5011858;28;20131;-71
2022/04/20 12:36:31;;;;;;;;;;;16.20;38.30;;;;;;5012545;28;20100;-70
2022/04/20 12:38:58;;;;;;;2.80;1.55;;;16.10;39.50;;;;;;5013266;28;19917;-71
2022/04/20 12:41:46;;;;;;;4.75;1.77;;;16.10;40.00;;;;;;5013219;28;20034;-71
2022/04/20 12:44:53;;;;;;;3.45;1.60;;;16.20;41.50;;;;;;5011902;28;20046;-71
2022/04/20 12:47:19;;;;;;;3.67;1.40;;;16.40;40.60;;;;;;5012185;28;20124;-71
2022/04/20 12:49:53;;;;;;;5.20;1.30;;;16.40;41.00;;;;;;5013320;28;20121;-71
2022/04/20 12:52:25;;;;;;;4.03;1.80;;;16.40;40.90;;;;;;5011914;28;20487;-71
2022/04/20 12:55:09;;;;;;;2.50;1.70;;;16.40;40.90;;;;;;5011347;28;20121;-71
2022/04/20 13:03:16;;;;;;;3.97;1.80;;;16.40;41.20;;;;;;5012917;28;20563;-70
2022/04/20 13:05:44;;;;;;;3.05;2.03;;;16.50;41.10;;;;;;5011871;28;20049;-71
2022/04/20 13:08:11;;;;;;;3.97;2.03;;;16.50;41.40;;;;;;5012673;28;20046;-71
2022/04/20 13:10:39;;;;;;;3.17;1.98;;;16.50;42.20;;;;;;5011199;28;20492;-71
2022/04/20 13:13:05;;;;;;;5.80;2.10;;;16.50;41.20;;;;;;5014915;28;20053;-71
2022/04/20 13:15:31;;;;;;;3.75;2.15;;;16.30;41.20;;;;;;5012756;28;20036;-71
2022/04/20 13:17:57;;;;;;;3.22;2.53;;;16.40;42.10;;;;;;5011573;28;20050;-71
2022/04/20 13:20:25;;;;;;;6.50;2.90;;;16.50;42.30;;;;;;5012392;28;20077;-71
2022/04/20 13:22:52;;;;;;;5.25;3.10;;;16.40;42.40;;;;;;5014104;28;20384;-74
2022/04/20 13:28:05;;;;;;;2.67;1.48;;;16.60;41.30;;;;;;5012762;28;20068;-71
2022/04/20 13:30:35;;;;;;;4.43;1.73;;;17.00;39.40;;;;;;5010749;28;20514;-71
2022/04/20 13:33:05;;;;;;;3.08;2.22;;;16.90;40.30;;;;;;5005544;28;20088;-71
2022/04/20 13:35:32;;;;;;;7.32;1.85;;;17.10;40.40;;;;;;4999566;28;20103;-71
2022/04/20 13:37:58;;;;;;;2.78;1.60;;;17.10;40.30;;;;;;5003138;28;20034;-72